sensor_id;sensor_type;location;lat;lon;timestamp;temperature;humidity
64685;DHT22;51109;47.414;18.954;2023-02-01T00:02:01;2.80;99.90
64685;DHT22;51109;47.414;18.954;2023-02-01T00:04:27;2.70;99.90
64685;DHT22;51109;47.414;18.954;2023-02-01T00:06:53;2.70;99.90
64685;DHT22;51109;47.414;18.954;2023-02-01T00:09:19;2.80;99.90
64685;DHT22;51109;47.414;18.954;2023-02-01T00:11:45;2.80;99.90
64685;DHT22;51109;47.414;18.954;2023-02-01T00:14:11;2.80;99.90
64685;DHT22;51109;47.414;18.954;2023-02-01T00:16:37;2.80;99.90
64685;DHT22;51109;47.414;18.954;2023-02-01T00:19:14;2.80;99.90
64685;DHT22;51109;47.414;18.954;2023-02-01T00:21:41;2.80;99.90
64685;DHT22;51109;47.414;18.954;2023-02-01T00:24:09;2.80;99.90
64685;DHT22;51109;47.414;18.954;2023-02-01T00:26:41;2.80;99.90
64685;DHT22;51109;47.414;18.954;2023-02-01T00:29:18;2.90;99.90
64685;DHT22;51109;47.414;18.954;2023-02-01T00:31:45;2.90;99.90
64685;DHT22;51109;47.414;18.954;2023-02-01T00:34:15;2.90;99.90
64685;DHT22;51109;47.414;18.954;2023-02-01T00:36:42;2.80;99.90
64685;DHT22;51109;47.414;18.954;2023-02-01T00:39:09;2.90;99.90
64685;DHT22;51109;47.414;18.954;2023-02-01T00:41:35;2.90;99.90
64685;DHT22;51109;47.414;18.954;2023-02-01T00:44:02;2.90;99.90
64685;DHT22;51109;47.414;18.954;2023-02-01T00:46:28;2.90;99.90
64685;DHT22;51109;47.414;18.954;2023-02-01T00:48:55;3.00;99.90
64685;DHT22;51109;47.414;18.954;2023-02-01T00:51:24;3.00;99.90
64685;DHT22;51109;47.414;18.954;2023-02-01T00:53:50;3.00;99.90
64685;DHT22;51109;47.414;18.954;2023-02-01T00:56:16;3.00;99.90
64685;DHT22;51109;47.414;18.954;2023-02-01T00:58:42;3.00;99.90
64685;DHT22;51109;47.414;18.954;2023-02-01T01:01:11;3.00;99.90
64685;DHT22;51109;47.414;18.954;2023-02-01T01:03:40;3.10;99.90
64685;DHT22;51109;47.414;18.954;2023-02-01T01:06:10;3.10;99.90
64685;DHT22;51109;47.414;18.954;2023-02-01T01:08:38;3.10;99.90
64685;DHT22;51109;47.414;18.954;2023-02-01T01:11:06;3.10;99.90
64685;DHT22;51109;47.414;18.954;2023-02-01T01:13:32;3.10;99.90
64685;DHT22;51109;47.414;18.954;2023-02-01T01:16:04;3.10;99.90
64685;DHT22;51109;47.414;18.954;2023-02-01T01:18:31;3.10;99.90
64685;DHT22;51109;47.414;18.954;2023-02-01T01:20:58;3.00;99.90
64685;DHT22;51109;47.414;18.954;2023-02-01T01:23:24;3.00;99.90
64685;DHT22;51109;47.414;18.954;2023-02-01T01:25:50;2.90;99.90
64685;DHT22;51109;47.414;18.954;2023-02-01T01:28:16;2.90;99.90
64685;DHT22;51109;47.414;18.954;2023-02-01T01:30:42;2.80;99.90
64685;DHT22;51109;47.414;18.954;2023-02-01T01:33:08;2.60;99.90
64685;DHT22;51109;47.414;18.954;2023-02-01T01:35:34;2.50;99.90
64685;DHT22;51109;47.414;18.954;2023-02-01T01:38:00;2.40;99.90
64685;DHT22;51109;47.414;18.954;2023-02-01T01:40:28;2.20;99.90
64685;DHT22;51109;47.414;18.954;2023-02-01T01:42:55;2.10;99.90
64685;DHT22;51109;47.414;18.954;2023-02-01T01:45:30;2.20;99.90
64685;DHT22;51109;47.414;18.954;2023-02-01T01:48:04;2.00;99.90
64685;DHT22;51109;47.414;18.954;2023-02-01T01:50:57;2.10;99.90
64685;DHT22;51109;47.414;18.954;2023-02-01T01:53:28;2.10;99.90
64685;DHT22;51109;47.414;18.954;2023-02-01T01:55:57;2.20;99.90
64685;DHT22;51109;47.414;18.954;2023-02-01T01:58:25;2.30;99.90
64685;DHT22;51109;47.414;18.954;2023-02-01T02:03:23;2.70;99.90
64685;DHT22;51109;47.414;18.954;2023-02-01T02:05:53;2.80;99.90
64685;DHT22;51109;47.414;18.954;2023-02-01T02:08:19;3.10;99.90
64685;DHT22;51109;47.414;18.954;2023-02-01T02:10:48;3.30;99.90
64685;DHT22;51109;47.414;18.954;2023-02-01T02:13:33;3.30;99.90
64685;DHT22;51109;47.414;18.954;2023-02-01T02:21:15;3.10;99.90
64685;DHT22;51109;47.414;18.954;2023-02-01T02:34:51;3.30;99.90
64685;DHT22;51109;47.414;18.954;2023-02-01T02:37:40;3.30;99.90
64685;DHT22;51109;47.414;18.954;2023-02-01T02:40:15;3.20;99.90
64685;DHT22;51109;47.414;18.954;2023-02-01T02:45:38;3.10;99.90
64685;DHT22;51109;47.414;18.954;2023-02-01T02:49:00;3.00;99.90
64685;DHT22;51109;47.414;18.954;2023-02-01T02:51:43;3.00;99.90
64685;DHT22;51109;47.414;18.954;2023-02-01T02:54:32;3.00;99.90
64685;DHT22;51109;47.414;18.954;2023-02-01T03:00:16;2.80;99.90
64685;DHT22;51109;47.414;18.954;2023-02-01T03:03:01;2.80;99.90
64685;DHT22;51109;47.414;18.954;2023-02-01T03:05:47;2.90;99.90
64685;DHT22;51109;47.414;18.954;2023-02-01T03:08:21;3.10;99.90
64685;DHT22;51109;47.414;18.954;2023-02-01T03:11:08;3.10;99.90
64685;DHT22;51109;47.414;18.954;2023-02-01T03:16:17;3.40;99.90
64685;DHT22;51109;47.414;18.954;2023-02-01T03:19:10;3.40;99.90
64685;DHT22;51109;47.414;18.954;2023-02-01T03:21:44;3.40;99.90
64685;DHT22;51109;47.414;18.954;2023-02-01T03:27:13;3.50;99.90
64685;DHT22;51109;47.414;18.954;2023-02-01T03:29:50;3.50;99.90
64685;DHT22;51109;47.414;18.954;2023-02-01T03:32:17;3.50;99.90
64685;DHT22;51109;47.414;18.954;2023-02-01T03:34:44;3.70;99.90
64685;DHT22;51109;47.414;18.954;2023-02-01T03:37:13;3.60;99.90
64685;DHT22;51109;47.414;18.954;2023-02-01T03:42:30;3.70;99.90
64685;DHT22;51109;47.414;18.954;2023-02-01T03:47:32;3.60;99.90
64685;DHT22;51109;47.414;18.954;2023-02-01T03:50:06;3.60;99.90
64685;DHT22;51109;47.414;18.954;2023-02-01T03:55:05;3.70;99.90
64685;DHT22;51109;47.414;18.954;2023-02-01T03:57:34;3.80;99.90
64685;DHT22;51109;47.414;18.954;2023-02-01T04:00:27;3.80;99.90
64685;DHT22;51109;47.414;18.954;2023-02-01T04:02:53;3.80;99.90
64685;DHT22;51109;47.414;18.954;2023-02-01T04:05:20;3.80;99.90
64685;DHT22;51109;47.414;18.954;2023-02-01T04:07:47;3.80;99.90
64685;DHT22;51109;47.414;18.954;2023-02-01T04:10:12;3.80;99.90
64685;DHT22;51109;47.414;18.954;2023-02-01T04:12:39;3.80;99.90
64685;DHT22;51109;47.414;18.954;2023-02-01T04:15:06;3.80;99.90
64685;DHT22;51109;47.414;18.954;2023-02-01T04:17:32;3.80;99.90
64685;DHT22;51109;47.414;18.954;2023-02-01T04:19:58;3.80;99.90
64685;DHT22;51109;47.414;18.954;2023-02-01T04:22:24;3.70;99.90
64685;DHT22;51109;47.414;18.954;2023-02-01T04:24:50;3.70;99.90
64685;DHT22;51109;47.414;18.954;2023-02-01T04:27:16;3.70;99.90
64685;DHT22;51109;47.414;18.954;2023-02-01T04:29:42;3.60;99.90
64685;DHT22;51109;47.414;18.954;2023-02-01T04:32:10;3.60;99.90
64685;DHT22;51109;47.414;18.954;2023-02-01T04:34:36;3.60;99.90
64685;DHT22;51109;47.414;18.954;2023-02-01T04:37:02;3.60;99.90
64685;DHT22;51109;47.414;18.954;2023-02-01T04:39:28;3.60;99.90
64685;DHT22;51109;47.414;18.954;2023-02-01T04:41:54;3.60;99.90
64685;DHT22;51109;47.414;18.954;2023-02-01T04:44:20;3.60;99.90
64685;DHT22;51109;47.414;18.954;2023-02-01T04:46:47;3.50;99.90
64685;DHT22;51109;47.414;18.954;2023-02-01T04:49:13;3.50;99.90
64685;DHT22;51109;47.414;18.954;2023-02-01T04:51:40;3.50;99.90
64685;DHT22;51109;47.414;18.954;2023-02-01T04:54:06;3.50;99.90
64685;DHT22;51109;47.414;18.954;2023-02-01T04:56:33;3.50;99.90
64685;DHT22;51109;47.414;18.954;2023-02-01T04:59:00;3.50;99.90
64685;DHT22;51109;47.414;18.954;2023-02-01T05:01:28;3.50;99.90
64685;DHT22;51109;47.414;18.954;2023-02-01T05:03:54;3.50;99.90
64685;DHT22;51109;47.414;18.954;2023-02-01T05:06:21;3.50;99.90
64685;DHT22;51109;47.414;18.954;2023-02-01T05:08:47;3.50;99.90
64685;DHT22;51109;47.414;18.954;2023-02-01T05:11:13;3.50;99.90
64685;DHT22;51109;47.414;18.954;2023-02-01T05:13:58;3.60;99.90
64685;DHT22;51109;47.414;18.954;2023-02-01T05:16:24;3.80;99.90
64685;DHT22;51109;47.414;18.954;2023-02-01T05:18:50;3.90;99.90
64685;DHT22;51109;47.414;18.954;2023-02-01T05:21:16;3.90;99.90
64685;DHT22;51109;47.414;18.954;2023-02-01T05:23:42;3.90;99.90
64685;DHT22;51109;47.414;18.954;2023-02-01T05:26:27;3.90;99.90
64685;DHT22;51109;47.414;18.954;2023-02-01T05:28:53;4.00;99.90
64685;DHT22;51109;47.414;18.954;2023-02-01T05:31:19;4.00;99.90
64685;DHT22;51109;47.414;18.954;2023-02-01T05:33:44;3.90;99.90
64685;DHT22;51109;47.414;18.954;2023-02-01T05:36:10;3.90;99.90
64685;DHT22;51109;47.414;18.954;2023-02-01T05:38:36;3.90;99.90
64685;DHT22;51109;47.414;18.954;2023-02-01T05:41:02;3.90;99.90
64685;DHT22;51109;47.414;18.954;2023-02-01T05:43:28;3.90;99.90
64685;DHT22;51109;47.414;18.954;2023-02-01T05:45:54;3.90;99.90
64685;DHT22;51109;47.414;18.954;2023-02-01T05:48:20;3.90;99.90
64685;DHT22;51109;47.414;18.954;2023-02-01T05:50:46;3.90;99.90
64685;DHT22;51109;47.414;18.954;2023-02-01T05:53:12;3.90;99.90
64685;DHT22;51109;47.414;18.954;2023-02-01T05:55:38;4.00;99.90
64685;DHT22;51109;47.414;18.954;2023-02-01T05:58:04;4.00;99.90
64685;DHT22;51109;47.414;18.954;2023-02-01T06:00:30;4.00;99.90
64685;DHT22;51109;47.414;18.954;2023-02-01T06:02:56;4.10;99.90
64685;DHT22;51109;47.414;18.954;2023-02-01T06:05:23;4.00;99.90
64685;DHT22;51109;47.414;18.954;2023-02-01T06:07:48;4.00;99.90
64685;DHT22;51109;47.414;18.954;2023-02-01T06:10:16;4.00;99.90
64685;DHT22;51109;47.414;18.954;2023-02-01T06:12:43;4.00;99.90
64685;DHT22;51109;47.414;18.954;2023-02-01T06:15:11;4.10;99.90
64685;DHT22;51109;47.414;18.954;2023-02-01T06:17:39;4.00;99.90
64685;DHT22;51109;47.414;18.954;2023-02-01T06:20:07;4.00;99.90
64685;DHT22;51109;47.414;18.954;2023-02-01T06:22:33;4.00;99.90
64685;DHT22;51109;47.414;18.954;2023-02-01T06:25:03;4.00;99.90
64685;DHT22;51109;47.414;18.954;2023-02-01T06:27:29;4.00;99.90
64685;DHT22;51109;47.414;18.954;2023-02-01T06:29:55;4.00;99.90
64685;DHT22;51109;47.414;18.954;2023-02-01T06:32:21;3.90;99.90
64685;DHT22;51109;47.414;18.954;2023-02-01T06:34:48;3.90;99.90
64685;DHT22;51109;47.414;18.954;2023-02-01T06:37:14;3.90;99.90
64685;DHT22;51109;47.414;18.954;2023-02-01T06:39:40;3.90;99.90
64685;DHT22;51109;47.414;18.954;2023-02-01T06:42:06;3.90;99.90
64685;DHT22;51109;47.414;18.954;2023-02-01T06:44:32;3.90;99.90
64685;DHT22;51109;47.414;18.954;2023-02-01T06:46:58;4.00;99.90
64685;DHT22;51109;47.414;18.954;2023-02-01T06:49:24;4.10;99.90
64685;DHT22;51109;47.414;18.954;2023-02-01T06:51:49;4.10;99.90
64685;DHT22;51109;47.414;18.954;2023-02-01T06:54:15;4.10;99.90
64685;DHT22;51109;47.414;18.954;2023-02-01T06:56:41;4.20;99.90
64685;DHT22;51109;47.414;18.954;2023-02-01T06:59:07;4.20;99.90
64685;DHT22;51109;47.414;18.954;2023-02-01T07:01:34;4.20;99.90
64685;DHT22;51109;47.414;18.954;2023-02-01T07:04:00;4.30;99.90
64685;DHT22;51109;47.414;18.954;2023-02-01T07:06:26;4.30;99.90
64685;DHT22;51109;47.414;18.954;2023-02-01T07:08:52;4.30;99.90
64685;DHT22;51109;47.414;18.954;2023-02-01T07:11:21;4.40;99.90
64685;DHT22;51109;47.414;18.954;2023-02-01T07:13:48;4.40;99.90
64685;DHT22;51109;47.414;18.954;2023-02-01T07:16:18;4.50;99.90
64685;DHT22;51109;47.414;18.954;2023-02-01T07:18:45;4.50;99.90
64685;DHT22;51109;47.414;18.954;2023-02-01T07:21:11;4.60;99.90
64685;DHT22;51109;47.414;18.954;2023-02-01T07:23:38;4.60;99.90
64685;DHT22;51109;47.414;18.954;2023-02-01T07:26:05;4.70;99.90
64685;DHT22;51109;47.414;18.954;2023-02-01T07:28:34;4.80;99.90
64685;DHT22;51109;47.414;18.954;2023-02-01T07:31:07;4.90;99.90
64685;DHT22;51109;47.414;18.954;2023-02-01T07:33:34;5.00;99.90
64685;DHT22;51109;47.414;18.954;2023-02-01T07:36:02;5.10;99.90
64685;DHT22;51109;47.414;18.954;2023-02-01T07:38:28;5.20;99.90
64685;DHT22;51109;47.414;18.954;2023-02-01T07:40:58;5.40;99.90
64685;DHT22;51109;47.414;18.954;2023-02-01T07:43:26;5.40;99.90
64685;DHT22;51109;47.414;18.954;2023-02-01T07:45:53;5.40;99.90
64685;DHT22;51109;47.414;18.954;2023-02-01T07:48:20;5.40;99.90
64685;DHT22;51109;47.414;18.954;2023-02-01T07:50:46;5.40;99.90
64685;DHT22;51109;47.414;18.954;2023-02-01T07:53:12;5.40;99.90
64685;DHT22;51109;47.414;18.954;2023-02-01T07:55:39;5.40;99.90
64685;DHT22;51109;47.414;18.954;2023-02-01T07:58:05;5.40;99.90
64685;DHT22;51109;47.414;18.954;2023-02-01T08:00:30;5.40;99.90
64685;DHT22;51109;47.414;18.954;2023-02-01T08:03:15;5.40;99.90
64685;DHT22;51109;47.414;18.954;2023-02-01T08:05:42;5.40;99.90
64685;DHT22;51109;47.414;18.954;2023-02-01T08:08:07;5.40;99.90
64685;DHT22;51109;47.414;18.954;2023-02-01T08:10:34;5.50;99.90
64685;DHT22;51109;47.414;18.954;2023-02-01T08:13:01;5.50;99.90
64685;DHT22;51109;47.414;18.954;2023-02-01T08:15:28;5.50;99.90
64685;DHT22;51109;47.414;18.954;2023-02-01T08:17:55;5.40;99.90
64685;DHT22;51109;47.414;18.954;2023-02-01T08:20:22;5.40;99.90
64685;DHT22;51109;47.414;18.954;2023-02-01T08:22:51;5.50;99.90
64685;DHT22;51109;47.414;18.954;2023-02-01T08:25:17;5.60;99.90
64685;DHT22;51109;47.414;18.954;2023-02-01T08:27:44;5.80;99.90
64685;DHT22;51109;47.414;18.954;2023-02-01T08:30:10;5.90;99.90
64685;DHT22;51109;47.414;18.954;2023-02-01T08:32:37;5.90;99.90
64685;DHT22;51109;47.414;18.954;2023-02-01T08:35:04;5.80;99.90
64685;DHT22;51109;47.414;18.954;2023-02-01T08:37:30;5.70;99.90
64685;DHT22;51109;47.414;18.954;2023-02-01T08:39:56;5.80;99.90
64685;DHT22;51109;47.414;18.954;2023-02-01T08:42:22;6.00;99.90
64685;DHT22;51109;47.414;18.954;2023-02-01T08:45:07;6.10;99.90
64685;DHT22;51109;47.414;18.954;2023-02-01T08:47:34;6.10;99.90
64685;DHT22;51109;47.414;18.954;2023-02-01T08:50:00;6.20;99.90
64685;DHT22;51109;47.414;18.954;2023-02-01T08:52:26;6.10;99.90
64685;DHT22;51109;47.414;18.954;2023-02-01T08:54:52;6.20;99.90
64685;DHT22;51109;47.414;18.954;2023-02-01T08:57:18;6.30;99.90
64685;DHT22;51109;47.414;18.954;2023-02-01T08:59:44;6.40;99.90
64685;DHT22;51109;47.414;18.954;2023-02-01T09:02:15;6.40;99.90
64685;DHT22;51109;47.414;18.954;2023-02-01T09:04:41;6.30;99.90
64685;DHT22;51109;47.414;18.954;2023-02-01T09:07:09;6.30;99.90
64685;DHT22;51109;47.414;18.954;2023-02-01T09:09:35;6.30;99.90
64685;DHT22;51109;47.414;18.954;2023-02-01T09:12:02;6.40;99.90
64685;DHT22;51109;47.414;18.954;2023-02-01T09:14:28;6.40;99.90
64685;DHT22;51109;47.414;18.954;2023-02-01T09:16:53;6.50;99.90
64685;DHT22;51109;47.414;18.954;2023-02-01T09:19:19;6.60;99.90
64685;DHT22;51109;47.414;18.954;2023-02-01T09:21:46;6.50;99.90
64685;DHT22;51109;47.414;18.954;2023-02-01T09:24:12;6.50;99.90
64685;DHT22;51109;47.414;18.954;2023-02-01T09:26:39;6.60;99.90
64685;DHT22;51109;47.414;18.954;2023-02-01T09:29:05;6.60;99.90
64685;DHT22;51109;47.414;18.954;2023-02-01T09:31:38;6.70;99.90
64685;DHT22;51109;47.414;18.954;2023-02-01T09:34:04;6.60;99.90
64685;DHT22;51109;47.414;18.954;2023-02-01T09:36:30;6.50;99.90
64685;DHT22;51109;47.414;18.954;2023-02-01T09:38:56;6.50;99.90
64685;DHT22;51109;47.414;18.954;2023-02-01T09:43:56;6.70;99.90
64685;DHT22;51109;47.414;18.954;2023-02-01T09:46:30;6.80;99.90
64685;DHT22;51109;47.414;18.954;2023-02-01T09:49:00;6.60;99.90
64685;DHT22;51109;47.414;18.954;2023-02-01T09:51:36;6.50;99.90
64685;DHT22;51109;47.414;18.954;2023-02-01T09:54:08;6.40;99.90
64685;DHT22;51109;47.414;18.954;2023-02-01T10:01:52;6.50;99.90
64685;DHT22;51109;47.414;18.954;2023-02-01T10:04:19;6.50;99.90
64685;DHT22;51109;47.414;18.954;2023-02-01T10:10:02;6.50;99.90
64685;DHT22;51109;47.414;18.954;2023-02-01T10:26:25;6.60;99.90
64685;DHT22;51109;47.414;18.954;2023-02-01T10:28:56;6.70;99.90
64685;DHT22;51109;47.414;18.954;2023-02-01T10:31:35;6.70;99.90
64685;DHT22;51109;47.414;18.954;2023-02-01T10:34:31;6.70;99.90
64685;DHT22;51109;47.414;18.954;2023-02-01T10:39:48;6.70;99.90
64685;DHT22;51109;47.414;18.954;2023-02-01T10:42:16;6.80;99.90
64685;DHT22;51109;47.414;18.954;2023-02-01T10:44:45;6.90;99.90
64685;DHT22;51109;47.414;18.954;2023-02-01T10:47:14;7.10;99.90
64685;DHT22;51109;47.414;18.954;2023-02-01T10:52:52;7.30;99.90
64685;DHT22;51109;47.414;18.954;2023-02-01T10:55:38;7.20;99.90
64685;DHT22;51109;47.414;18.954;2023-02-01T10:58:16;7.00;99.90
64685;DHT22;51109;47.414;18.954;2023-02-01T11:01:03;6.90;99.90
64685;DHT22;51109;47.414;18.954;2023-02-01T11:03:57;6.80;99.90
64685;DHT22;51109;47.414;18.954;2023-02-01T11:06:36;6.90;99.90
64685;DHT22;51109;47.414;18.954;2023-02-01T11:09:10;6.90;99.90
64685;DHT22;51109;47.414;18.954;2023-02-01T11:14:16;7.10;99.90
64685;DHT22;51109;47.414;18.954;2023-02-01T11:16:54;7.10;99.90
64685;DHT22;51109;47.414;18.954;2023-02-01T11:19:20;7.00;99.90
64685;DHT22;51109;47.414;18.954;2023-02-01T11:21:52;7.00;99.90
64685;DHT22;51109;47.414;18.954;2023-02-01T11:27:00;6.70;99.90
64685;DHT22;51109;47.414;18.954;2023-02-01T11:29:40;6.70;99.90
64685;DHT22;51109;47.414;18.954;2023-02-01T11:32:09;6.60;99.90
64685;DHT22;51109;47.414;18.954;2023-02-01T11:37:02;6.50;99.90
64685;DHT22;51109;47.414;18.954;2023-02-01T11:39:33;6.40;99.90
64685;DHT22;51109;47.414;18.954;2023-02-01T11:42:16;6.40;99.90
64685;DHT22;51109;47.414;18.954;2023-02-01T11:44:46;6.40;99.90
64685;DHT22;51109;47.414;18.954;2023-02-01T11:47:39;6.30;99.90
64685;DHT22;51109;47.414;18.954;2023-02-01T12:06:55;6.00;99.90
64685;DHT22;51109;47.414;18.954;2023-02-01T12:25:41;5.00;99.90
64685;DHT22;51109;47.414;18.954;2023-02-01T12:39:22;4.50;99.90
64685;DHT22;51109;47.414;18.954;2023-02-01T12:41:50;4.40;99.90
64685;DHT22;51109;47.414;18.954;2023-02-01T12:47:04;4.30;99.90
64685;DHT22;51109;47.414;18.954;2023-02-01T12:52:27;4.30;99.90
64685;DHT22;51109;47.414;18.954;2023-02-01T12:54:58;4.30;99.90
64685;DHT22;51109;47.414;18.954;2023-02-01T12:57:33;4.30;99.90
64685;DHT22;51109;47.414;18.954;2023-02-01T13:00:04;4.40;99.90
64685;DHT22;51109;47.414;18.954;2023-02-01T13:05:20;4.50;99.90
64685;DHT22;51109;47.414;18.954;2023-02-01T13:07:55;4.50;99.90
64685;DHT22;51109;47.414;18.954;2023-02-01T13:15:51;4.60;99.90
64685;DHT22;51109;47.414;18.954;2023-02-01T13:18:21;4.70;99.90
64685;DHT22;51109;47.414;18.954;2023-02-01T13:21:10;4.70;99.90
64685;DHT22;51109;47.414;18.954;2023-02-01T13:23:40;4.70;99.90
64685;DHT22;51109;47.414;18.954;2023-02-01T13:26:06;4.70;99.90
64685;DHT22;51109;47.414;18.954;2023-02-01T13:28:52;4.60;99.90
64685;DHT22;51109;47.414;18.954;2023-02-01T13:37:29;4.60;99.90
64685;DHT22;51109;47.414;18.954;2023-02-01T13:40:17;4.70;99.90
64685;DHT22;51109;47.414;18.954;2023-02-01T13:43:34;4.60;99.90
64685;DHT22;51109;47.414;18.954;2023-02-01T13:45:48;4.70;99.90
64685;DHT22;51109;47.414;18.954;2023-02-01T13:48:21;4.70;99.90
64685;DHT22;51109;47.414;18.954;2023-02-01T13:50:53;4.70;99.90
64685;DHT22;51109;47.414;18.954;2023-02-01T13:53:31;4.70;99.90
64685;DHT22;51109;47.414;18.954;2023-02-01T13:56:02;4.70;99.90
64685;DHT22;51109;47.414;18.954;2023-02-01T13:58:35;4.70;99.90
64685;DHT22;51109;47.414;18.954;2023-02-01T14:03:57;4.70;99.90
64685;DHT22;51109;47.414;18.954;2023-02-01T14:09:14;4.70;99.90
64685;DHT22;51109;47.414;18.954;2023-02-01T14:16:43;4.70;99.90
64685;DHT22;51109;47.414;18.954;2023-02-01T14:19:29;4.80;99.90
64685;DHT22;51109;47.414;18.954;2023-02-01T14:21:56;4.80;99.90
64685;DHT22;51109;47.414;18.954;2023-02-01T14:24:29;4.80;99.90
64685;DHT22;51109;47.414;18.954;2023-02-01T14:27:23;4.80;99.90
64685;DHT22;51109;47.414;18.954;2023-02-01T14:29:58;4.80;99.90
64685;DHT22;51109;47.414;18.954;2023-02-01T14:32:34;4.90;99.90
64685;DHT22;51109;47.414;18.954;2023-02-01T14:35:06;4.90;99.90
64685;DHT22;51109;47.414;18.954;2023-02-01T14:37:38;4.90;99.90
64685;DHT22;51109;47.414;18.954;2023-02-01T14:40:15;5.10;99.90
64685;DHT22;51109;47.414;18.954;2023-02-01T15:00:53;5.20;99.90
64685;DHT22;51109;47.414;18.954;2023-02-01T15:05:57;5.30;99.90
64685;DHT22;51109;47.414;18.954;2023-02-01T15:08:28;5.30;99.90
64685;DHT22;51109;47.414;18.954;2023-02-01T15:10:59;5.30;99.90
64685;DHT22;51109;47.414;18.954;2023-02-01T15:13:27;5.30;99.90
64685;DHT22;51109;47.414;18.954;2023-02-01T15:18:33;5.30;99.90
64685;DHT22;51109;47.414;18.954;2023-02-01T15:21:01;5.30;99.90
64685;DHT22;51109;47.414;18.954;2023-02-01T15:23:27;5.20;99.90
64685;DHT22;51109;47.414;18.954;2023-02-01T15:25:54;5.20;99.90
64685;DHT22;51109;47.414;18.954;2023-02-01T15:28:21;5.30;99.90
64685;DHT22;51109;47.414;18.954;2023-02-01T15:30:54;5.20;99.90
64685;DHT22;51109;47.414;18.954;2023-02-01T15:33:21;5.20;99.90
64685;DHT22;51109;47.414;18.954;2023-02-01T15:35:52;5.20;99.90
64685;DHT22;51109;47.414;18.954;2023-02-01T15:43:31;5.20;99.90
64685;DHT22;51109;47.414;18.954;2023-02-01T15:46:03;5.20;99.90
64685;DHT22;51109;47.414;18.954;2023-02-01T15:48:43;5.30;99.90
64685;DHT22;51109;47.414;18.954;2023-02-01T15:51:16;5.20;99.90
64685;DHT22;51109;47.414;18.954;2023-02-01T15:53:45;5.20;99.90
64685;DHT22;51109;47.414;18.954;2023-02-01T15:56:12;5.20;99.90
64685;DHT22;51109;47.414;18.954;2023-02-01T15:58:50;5.10;99.90
64685;DHT22;51109;47.414;18.954;2023-02-01T16:01:17;5.10;99.90
64685;DHT22;51109;47.414;18.954;2023-02-01T16:03:45;5.10;99.90
64685;DHT22;51109;47.414;18.954;2023-02-01T16:08:52;5.10;99.90
64685;DHT22;51109;47.414;18.954;2023-02-01T16:11:28;5.20;99.90
64685;DHT22;51109;47.414;18.954;2023-02-01T16:13:57;5.30;99.90
64685;DHT22;51109;47.414;18.954;2023-02-01T16:16:24;5.40;99.90
64685;DHT22;51109;47.414;18.954;2023-02-01T16:18:51;5.40;99.90
64685;DHT22;51109;47.414;18.954;2023-02-01T16:21:16;5.40;99.90
64685;DHT22;51109;47.414;18.954;2023-02-01T16:23:42;5.40;99.90
64685;DHT22;51109;47.414;18.954;2023-02-01T16:26:08;5.40;99.90
64685;DHT22;51109;47.414;18.954;2023-02-01T16:28:34;5.40;99.90
64685;DHT22;51109;47.414;18.954;2023-02-01T16:31:02;5.30;99.90
64685;DHT22;51109;47.414;18.954;2023-02-01T16:33:28;5.30;99.90
64685;DHT22;51109;47.414;18.954;2023-02-01T16:35:56;5.20;99.90
64685;DHT22;51109;47.414;18.954;2023-02-01T16:38:25;5.20;99.90
64685;DHT22;51109;47.414;18.954;2023-02-01T16:40:52;5.20;99.90
64685;DHT22;51109;47.414;18.954;2023-02-01T16:43:23;5.10;99.90
64685;DHT22;51109;47.414;18.954;2023-02-01T16:45:52;5.10;99.90
64685;DHT22;51109;47.414;18.954;2023-02-01T16:48:27;5.10;99.90
64685;DHT22;51109;47.414;18.954;2023-02-01T16:50:57;5.10;99.90
64685;DHT22;51109;47.414;18.954;2023-02-01T16:53:24;5.10;99.90
64685;DHT22;51109;47.414;18.954;2023-02-01T16:55:50;5.00;99.90
64685;DHT22;51109;47.414;18.954;2023-02-01T16:58:19;5.00;99.90
64685;DHT22;51109;47.414;18.954;2023-02-01T17:00:45;4.90;99.90
64685;DHT22;51109;47.414;18.954;2023-02-01T17:03:12;4.90;99.90
64685;DHT22;51109;47.414;18.954;2023-02-01T17:05:53;4.90;99.90
64685;DHT22;51109;47.414;18.954;2023-02-01T17:08:29;4.90;99.90
64685;DHT22;51109;47.414;18.954;2023-02-01T17:10:56;5.00;99.90
64685;DHT22;51109;47.414;18.954;2023-02-01T17:13:22;5.00;99.90
64685;DHT22;51109;47.414;18.954;2023-02-01T17:16:26;5.10;99.90
64685;DHT22;51109;47.414;18.954;2023-02-01T17:18:56;5.10;99.90
64685;DHT22;51109;47.414;18.954;2023-02-01T17:21:24;5.00;99.90
64685;DHT22;51109;47.414;18.954;2023-02-01T17:23:51;4.90;99.90
64685;DHT22;51109;47.414;18.954;2023-02-01T17:26:18;4.90;99.90
64685;DHT22;51109;47.414;18.954;2023-02-01T17:28:44;4.90;99.90
64685;DHT22;51109;47.414;18.954;2023-02-01T17:31:13;4.90;99.90
64685;DHT22;51109;47.414;18.954;2023-02-01T17:33:41;4.90;99.90
64685;DHT22;51109;47.414;18.954;2023-02-01T17:36:14;4.90;99.90
64685;DHT22;51109;47.414;18.954;2023-02-01T17:38:43;4.90;99.90
64685;DHT22;51109;47.414;18.954;2023-02-01T17:41:11;4.80;99.90
64685;DHT22;51109;47.414;18.954;2023-02-01T17:43:38;4.80;99.90
64685;DHT22;51109;47.414;18.954;2023-02-01T17:46:11;4.80;99.90
64685;DHT22;51109;47.414;18.954;2023-02-01T17:48:39;4.80;99.90
64685;DHT22;51109;47.414;18.954;2023-02-01T17:51:27;4.70;99.90
64685;DHT22;51109;47.414;18.954;2023-02-01T17:53:54;4.70;99.90
64685;DHT22;51109;47.414;18.954;2023-02-01T17:56:23;4.80;99.90
64685;DHT22;51109;47.414;18.954;2023-02-01T17:58:51;4.80;99.90
64685;DHT22;51109;47.414;18.954;2023-02-01T18:01:23;4.80;99.90
64685;DHT22;51109;47.414;18.954;2023-02-01T18:03:50;4.80;99.90
64685;DHT22;51109;47.414;18.954;2023-02-01T18:06:19;4.80;99.90
64685;DHT22;51109;47.414;18.954;2023-02-01T18:08:46;4.80;99.90
64685;DHT22;51109;47.414;18.954;2023-02-01T18:11:17;4.70;99.90
64685;DHT22;51109;47.414;18.954;2023-02-01T18:13:43;4.70;99.90
64685;DHT22;51109;47.414;18.954;2023-02-01T18:16:30;4.70;99.90
64685;DHT22;51109;47.414;18.954;2023-02-01T18:18:56;4.80;99.90
64685;DHT22;51109;47.414;18.954;2023-02-01T18:21:35;4.70;99.90
64685;DHT22;51109;47.414;18.954;2023-02-01T18:24:02;4.70;99.90
64685;DHT22;51109;47.414;18.954;2023-02-01T18:26:29;4.80;99.90
64685;DHT22;51109;47.414;18.954;2023-02-01T18:28:55;4.80;99.90
64685;DHT22;51109;47.414;18.954;2023-02-01T18:31:26;4.80;99.90
64685;DHT22;51109;47.414;18.954;2023-02-01T18:33:55;4.80;99.90
64685;DHT22;51109;47.414;18.954;2023-02-01T18:36:26;4.80;99.90
64685;DHT22;51109;47.414;18.954;2023-02-01T18:38:52;4.70;99.90
64685;DHT22;51109;47.414;18.954;2023-02-01T18:41:22;4.70;99.90
64685;DHT22;51109;47.414;18.954;2023-02-01T18:43:49;4.70;99.90
64685;DHT22;51109;47.414;18.954;2023-02-01T18:46:16;4.60;99.90
64685;DHT22;51109;47.414;18.954;2023-02-01T18:48:43;4.60;99.90
64685;DHT22;51109;47.414;18.954;2023-02-01T18:51:11;4.70;99.90